Nesconset, NY (11767)

8:01 AM EDT on September 17, 2014 (GMT -0400)
Nesconset Extreme | Change Station
CLOSE
Current Station
Personal Weather Station
Location: Nesconset, NY
Elevation: 92 ft
Nearby Weather Stations

Elev 92 ft 40.85 °N, 73.13 °W | Updated 13 seconds ago

Partly Cloudy
Partly Cloudy
56.3 °F
Feels Like 56.3 °F
N
0.0
Wind Variable Wind from WNW
Gusts 0.0 mph

Today
High -- | Low -- °F
--% Chance of Precip.
Yesterday
High -- | Low -- °F
Precip. -- in
6:35 AM 6:58 PM
Last Quarter, 36% visible
Pressure 30.04 in
Visibility 10.0 miles
Clouds Scattered Clouds 7000 ft
Scattered Clouds 25000 ft
Dew Point 56 °F
Humidity 99%
Rainfall 0.00 in
Snow Depth Not available.
UV 1 out of 12
Pollen 3.20 out of 12
Ozone Good
Flu Activity Not available.
METAR KISP 171156Z 00000KT 10SM SCT070 SCT250 15/12 A3004 RMK AO2 SLP171 70011 T01500117 10150 20100 53010

More Conditions Fewer Conditions

Pressure 30.04 in
Visibility 10.0 miles
Clouds Scattered Clouds 7000 ft
Scattered Clouds 25000 ft
Dew Point 56 °F
Humidity 99%
Rainfall 0.00 in
Snow Depth Not available.
UV 1 out of 12
Pollen 3.20 out of 12
Ozone Good
Flu Activity Not available.
METAR KISP 171156Z 00000KT 10SM SCT070 SCT250 15/12 A3004 RMK AO2 SLP171 70011 T01500117 10150 20100 53010

More Conditions Fewer Conditions

10-Day Weather Forecast

Almanac

Astronomy

Sep. 17, 2014 Rise Set
Actual Time 6:35 AM EDT 6:58 PM EDT
Civil Twilight 6:07 AM EDT 7:25 PM EDT
Nautical Twilight 5:35 AM EDT 7:57 PM EDT
Astronomical Twilight 5:02 AM EDT 8:30 PM EDT
Moon 12:31 AM EDT 3:07 PM EDT
Length of Visible Light 13h 18m
Length of Day
12h 23m
Tomorrow will be 2m 41s shorter.
Last Quarter, 36% of the Moon is Illuminated
Today
Last Quarter
Sep 24
New
Oct 1
First Quarter
Oct 8
Full
Oct 15
Last Quarter

Today's Extremes

State Highs State Lows

Community

WunderPhotos

Upload Photos

1,754,005 photos uploaded!

Nearby

Air Quality

  Air Quality AQ Index Pollutant
Yesterday Good
OZONE
Current Good
OZONE
Wednesday Good
OZONE
Wednesday Good
PM2.5

Snow Depth

Station Depth Elevation
No new snow has been reported.

Earthquake Activity

City Distance Mag. Time & Date
No recent earthquake activity has been reported nearby.
Minimum magnitude displayed is 2.5.

Coastal Water Temperatures

Place Temperature
Kings Point, NY 69.1 °F
Bridgeport, CT 69.1 °F

Nearby Weather Stations